Terminal Aerodrome Forecast
Issued by NWS

Home | Current Version | Previous Version | Text Only | Print | Product List | Glossary On
Versions: 1 2 3 4 5 6 7 8 9 10 11 12 13 14 15 16 17 18 19 20 21 22 23 24 25 26 27 28 29 30 31 32 33 34 35 36 37 38
000
FTUS41 KBOX 292336
TAFACK
TAF
KACK 292336Z 3000/3024 05007KT P6SM SKC
     FM300200 03006KT 5SM BR SCT200
     FM300300 33006KT 4SM BR SCT250
     FM300500 34007KT 3SM BR SCT008 SCT100
     FM301300 03006KT P6SM FEW250
     FM301700 07005KT P6SM FEW200
     FM302200 13005KT P6SM SCT150=

USA.gov is the U.S. government's official web portal to all federal, state and local government web resources and services.